Time;durP1;ratioP1;P1;durP2;ratioP2;P2;SDS_P1;SDS_P2;PMS_P1;PMS_P2;Temp;Humidity;BMP_temperature;BMP_pressure;BME280_temperature;BME280_humidity;BME280_pressure;Samples;Min_cycle;Max_cycle;Signal;HPM_P1;HPM_P2
2023/04/16 00:00:16;;;;;;;6.07;3.90;;;5.50;99.90;;;;;;2081256;28;20181;-65
2023/04/16 00:01:37;;;;;;;4.95;3.17;;;5.40;99.90;;;;;;2064973;28;20333;-65
2023/04/16 00:02:59;;;;;;;5.03;3.10;;;5.40;99.90;;;;;;2077315;28;20188;-66
2023/04/16 00:04:20;;;;;;;4.00;2.95;;;5.40;99.90;;;;;;2079599;28;20211;-69
2023/04/16 00:05:41;;;;;;;5.10;3.40;;;5.30;99.90;;;;;;2080756;28;20200;-69
2023/04/16 00:07:02;;;;;;;4.55;3.00;;;5.30;99.90;;;;;;2081334;28;20658;-68
2023/04/16 00:08:23;;;;;;;4.30;3.25;;;5.40;99.90;;;;;;2075884;28;20221;-66
2023/04/16 00:09:45;;;;;;;3.83;2.85;;;5.40;99.90;;;;;;2076413;28;20224;-67
2023/04/16 00:11:06;;;;;;;4.50;3.25;;;5.30;99.90;;;;;;2077766;28;20193;-67
2023/04/16 00:12:27;;;;;;;4.38;3.10;;;5.20;99.90;;;;;;2061894;28;20941;-66
2023/04/16 00:13:49;;;;;;;4.50;3.10;;;5.20;99.90;;;;;;2072643;28;20631;-67
2023/04/16 00:15:10;;;;;;;3.92;2.70;;;5.20;99.90;;;;;;2080339;28;20205;-67
2023/04/16 00:16:31;;;;;;;3.60;2.72;;;5.30;99.90;;;;;;2073332;28;20315;-66
2023/04/16 00:17:52;;;;;;;4.30;2.95;;;5.30;99.90;;;;;;2070886;28;20280;-68
2023/04/16 00:19:15;;;;;;;4.47;3.10;;;5.40;99.90;;;;;;2078118;28;20244;-67
2023/04/16 00:20:36;;;;;;;4.88;3.20;;;5.50;99.90;;;;;;2080322;28;20204;-66
2023/04/16 00:21:57;;;;;;;4.18;3.08;;;5.60;99.90;;;;;;2080208;28;20193;-66
2023/04/16 00:23:19;;;;;;;5.70;3.22;;;5.60;99.90;;;;;;2078627;28;20227;-67
2023/04/16 00:24:41;;;;;;;3.15;2.60;;;5.60;99.90;;;;;;2079392;28;20235;-66
2023/04/16 00:26:02;;;;;;;3.92;3.22;;;5.60;99.90;;;;;;2070356;28;20201;-67
2023/04/16 00:27:23;;;;;;;3.90;2.95;;;5.60;99.90;;;;;;2077215;28;20891;-66
2023/04/16 00:28:44;;;;;;;4.30;3.03;;;5.30;99.90;;;;;;2078548;28;20482;-67
2023/04/16 00:30:06;;;;;;;3.63;2.75;;;5.20;99.90;;;;;;2067093;28;20224;-67
2023/04/16 00:31:30;;;;;;;5.43;3.45;;;5.20;99.90;;;;;;2073168;28;20213;-66
2023/04/16 00:32:51;;;;;;;3.72;2.85;;;5.30;99.90;;;;;;2072806;28;20193;-67
2023/04/16 00:34:12;;;;;;;3.90;2.55;;;5.30;99.90;;;;;;2069722;28;20221;-66
2023/04/16 00:35:33;;;;;;;3.95;2.63;;;5.40;99.90;;;;;;2070815;28;20201;-66
2023/04/16 00:36:54;;;;;;;5.70;2.75;;;5.50;99.90;;;;;;2069202;28;20204;-67
2023/04/16 00:38:15;;;;;;;6.03;2.72;;;5.50;99.90;;;;;;2077739;28;20205;-66
2023/04/16 00:39:38;;;;;;;3.88;2.58;;;5.50;99.90;;;;;;2078686;28;20231;-67
2023/04/16 00:40:59;;;;;;;4.40;2.83;;;5.60;99.90;;;;;;2073951;28;20262;-67
2023/04/16 00:42:21;;;;;;;3.78;3.05;;;5.70;99.90;;;;;;2077155;28;20260;-67
2023/04/16 00:43:43;;;;;;;3.42;2.67;;;5.60;99.90;;;;;;2079037;28;20243;-66
2023/04/16 00:45:05;;;;;;;3.72;2.65;;;5.50;99.90;;;;;;2077940;28;20196;-67
2023/04/16 00:46:26;;;;;;;3.72;2.65;;;5.50;99.90;;;;;;2078089;28;20352;-66
2023/04/16 00:47:48;;;;;;;4.45;3.17;;;5.60;99.90;;;;;;2080272;28;20304;-66
2023/04/16 00:49:09;;;;;;;4.53;2.65;;;5.50;99.90;;;;;;2076745;28;20216;-67
2023/04/16 00:50:30;;;;;;;3.50;2.45;;;5.40;99.90;;;;;;2071991;28;20194;-67
2023/04/16 00:51:51;;;;;;;3.97;2.83;;;5.40;99.90;;;;;;2070314;28;20201;-66
2023/04/16 00:53:14;;;;;;;4.93;2.90;;;5.40;99.90;;;;;;2078448;28;20243;-67
2023/04/16 00:54:35;;;;;;;6.13;3.47;;;5.30;99.90;;;;;;2078180;28;20717;-67
2023/04/16 00:55:57;;;;;;;4.43;2.90;;;5.40;99.90;;;;;;2070655;28;20220;-67
2023/04/16 00:57:19;;;;;;;3.97;2.60;;;5.40;99.90;;;;;;2071308;28;20240;-66
2023/04/16 00:58:41;;;;;;;3.20;2.42;;;5.40;99.90;;;;;;2065451;28;20249;-67
2023/04/16 01:00:04;;;;;;;3.97;2.80;;;5.40;99.90;;;;;;2075643;28;20225;-67
2023/04/16 01:01:26;;;;;;;3.97;2.70;;;5.40;99.90;;;;;;2078393;28;20327;-66
2023/04/16 01:02:47;;;;;;;6.45;2.95;;;5.40;99.90;;;;;;2078033;28;20352;-67
2023/04/16 01:04:08;;;;;;;4.65;3.17;;;5.40;99.90;;;;;;2077419;28;20214;-67
2023/04/16 01:05:30;;;;;;;4.20;2.58;;;5.40;99.90;;;;;;2077471;28;20416;-67
2023/04/16 01:06:52;;;;;;;4.00;2.65;;;5.40;99.90;;;;;;2076136;28;20193;-67
2023/04/16 01:08:18;;;;;;;4.82;3.40;;;5.50;99.90;;;;;;2081419;28;20216;-66
2023/04/16 01:09:39;;;;;;;5.57;3.15;;;5.50;99.90;;;;;;2076301;28;20573;-67
2023/04/16 01:11:00;;;;;;;5.70;3.20;;;5.40;99.90;;;;;;2077992;28;20212;-67
2023/04/16 01:12:22;;;;;;;6.15;3.95;;;5.30;99.90;;;;;;2070034;28;20202;-67
2023/04/16 01:13:44;;;;;;;6.53;4.15;;;5.30;99.90;;;;;;2077971;28;20200;-67
2023/04/16 01:15:06;;;;;;;6.60;4.30;;;5.30;99.90;;;;;;2080168;28;20268;-67
2023/04/16 01:16:28;;;;;;;6.28;4.22;;;5.30;99.90;;;;;;2080125;28;20247;-67
2023/04/16 01:17:50;;;;;;;5.82;4.10;;;5.30;99.90;;;;;;2080280;28;20578;-67
2023/04/16 01:19:11;;;;;;;6.07;3.70;;;5.40;99.90;;;;;;2077771;28;20295;-67
2023/04/16 01:20:35;;;;;;;6.50;4.18;;;5.40;99.90;;;;;;2078178;28;20192;-67
2023/04/16 01:21:59;;;;;;;6.68;4.38;;;5.40;99.90;;;;;;2071043;28;20200;-66
2023/04/16 01:23:20;;;;;;;7.40;3.63;;;5.40;99.90;;;;;;2071489;28;20197;-67
2023/04/16 01:24:41;;;;;;;6.57;3.95;;;5.30;99.90;;;;;;2069508;28;20201;-66
2023/04/16 01:26:02;;;;;;;5.82;4.13;;;5.40;99.90;;;;;;2059919;28;20699;-67
2023/04/16 01:27:23;;;;;;;6.72;4.32;;;5.40;99.90;;;;;;2064799;28;20209;-66
2023/04/16 01:28:45;;;;;;;8.40;4.30;;;5.40;99.90;;;;;;2075031;28;20201;-67
2023/04/16 01:30:08;;;;;;;7.07;3.83;;;5.50;99.90;;;;;;2072099;28;20205;-67
2023/04/16 01:31:29;;;;;;;4.65;3.30;;;5.60;99.90;;;;;;2078142;28;20275;-68
2023/04/16 01:32:50;;;;;;;4.50;3.20;;;5.50;99.90;;;;;;2080839;28;20248;-66
2023/04/16 01:34:11;;;;;;;5.35;3.10;;;5.80;99.90;;;;;;2072743;28;20244;-66
2023/04/16 01:35:32;;;;;;;6.20;3.70;;;5.40;99.90;;;;;;2069262;28;20197;-66
2023/04/16 01:36:54;;;;;;;5.35;3.35;;;5.40;99.90;;;;;;2077132;28;20228;-65
2023/04/16 01:38:17;;;;;;;6.90;3.97;;;5.40;99.90;;;;;;2072917;28;20204;-66
2023/04/16 01:39:38;;;;;;;4.68;3.20;;;5.40;99.90;;;;;;2077494;28;20292;-65
2023/04/16 01:41:00;;;;;;;5.47;2.97;;;5.40;99.90;;;;;;2073025;28;20280;-66
2023/04/16 01:42:22;;;;;;;5.05;3.20;;;5.40;99.90;;;;;;2081145;28;20319;-66
2023/04/16 01:43:43;;;;;;;5.90;3.47;;;5.50;99.90;;;;;;2081504;28;20201;-65
2023/04/16 01:45:05;;;;;;;5.65;3.20;;;5.50;99.90;;;;;;2076722;28;20280;-67
2023/04/16 01:46:28;;;;;;;5.10;3.20;;;5.60;99.90;;;;;;2072438;28;20204;-66
2023/04/16 01:47:50;;;;;;;5.45;3.45;;;5.50;99.90;;;;;;2075607;28;20661;-65
2023/04/16 01:49:12;;;;;;;5.25;2.88;;;5.40;99.90;;;;;;2080378;28;20249;-66
2023/04/16 01:50:34;;;;;;;6.05;3.95;;;5.40;99.90;;;;;;2079831;28;20193;-65
2023/04/16 01:51:55;;;;;;;6.07;3.63;;;5.30;99.90;;;;;;2080051;28;20200;-67
2023/04/16 01:53:16;;;;;;;5.85;3.70;;;5.20;99.90;;;;;;2072028;28;20208;-66
2023/04/16 01:54:37;;;;;;;6.90;3.80;;;5.30;99.90;;;;;;2077009;28;20200;-67
2023/04/16 01:55:58;;;;;;;7.80;3.70;;;5.30;99.90;;;;;;2072769;28;20316;-66
2023/04/16 01:57:19;;;;;;;7.07;4.22;;;5.30;99.90;;;;;;2076685;28;20189;-66
2023/04/16 01:58:41;;;;;;;6.30;3.85;;;5.20;99.90;;;;;;2071680;28;20205;-67
2023/04/16 02:00:04;;;;;;;6.85;4.20;;;5.20;99.90;;;;;;2072821;28;20257;-66
2023/04/16 02:01:25;;;;;;;8.32;3.70;;;5.20;99.90;;;;;;2075855;28;20659;-66
2023/04/16 02:02:48;;;;;;;5.05;3.30;;;5.30;99.90;;;;;;2077538;28;20584;-66
2023/04/16 02:04:09;;;;;;;5.05;3.10;;;5.40;99.90;;;;;;2076604;28;20240;-68
2023/04/16 02:05:30;;;;;;;5.35;3.28;;;5.50;99.90;;;;;;2072392;28;20669;-66
2023/04/16 02:06:52;;;;;;;5.55;3.33;;;5.40;99.90;;;;;;2070365;28;20197;-66
2023/04/16 02:08:13;;;;;;;5.32;3.47;;;5.40;99.90;;;;;;2077307;28;20227;-66
2023/04/16 02:09:36;;;;;;;4.05;3.17;;;4.30;99.90;;;;;;2079864;28;20223;-66
2023/04/16 02:10:59;;;;;;;4.93;3.10;;;5.30;99.90;;;;;;2075157;28;20200;-66
2023/04/16 02:12:20;;;;;;;6.97;6.20;;;5.40;99.90;;;;;;2078886;28;20196;-66
2023/04/16 02:13:41;;;;;;;4.93;2.97;;;5.20;99.90;;;;;;2080719;28;20197;-66
2023/04/16 02:15:03;;;;;;;4.90;3.15;;;5.20;99.90;;;;;;2070226;28;20706;-66
2023/04/16 02:16:25;;;;;;;6.35;3.92;;;5.20;99.90;;;;;;2070080;28;20192;-66
2023/04/16 02:17:47;;;;;;;5.80;2.83;;;5.30;99.90;;;;;;2075799;28;20671;-66
2023/04/16 02:19:08;;;;;;;5.03;3.05;;;5.20;99.90;;;;;;2080577;28;20273;-66
2023/04/16 02:20:29;;;;;;;5.72;3.00;;;5.20;99.90;;;;;;2068189;28;20196;-66
2023/04/16 02:21:51;;;;;;;7.40;4.18;;;5.30;99.90;;;;;;2077778;28;20217;-65
2023/04/16 02:23:15;;;;;;;3.67;2.42;;;5.30;99.90;;;;;;2067315;28;20225;-66
2023/04/16 02:24:36;;;;;;;5.70;3.25;;;5.40;99.90;;;;;;2074801;28;20204;-66
2023/04/16 02:25:58;;;;;;;5.57;3.20;;;5.30;99.90;;;;;;2080604;28;20672;-66
2023/04/16 02:27:19;;;;;;;6.32;3.08;;;5.20;99.90;;;;;;2080159;28;20199;-66
2023/04/16 02:28:40;;;;;;;4.90;3.10;;;5.20;99.90;;;;;;2068340;28;20785;-66
2023/04/16 02:30:03;;;;;;;4.57;2.80;;;5.30;99.90;;;;;;2076449;28;20682;-67
2023/04/16 02:31:24;;;;;;;4.25;2.30;;;5.30;99.90;;;;;;2079508;28;20577;-66
2023/04/16 02:32:45;;;;;;;5.90;3.00;;;5.20;99.90;;;;;;2079075;28;20201;-66
2023/04/16 02:34:07;;;;;;;3.85;2.90;;;5.30;99.90;;;;;;2077482;28;20835;-67
2023/04/16 02:35:39;;;;;;;4.68;2.72;;;5.30;99.90;;;;;;2081280;28;20284;-66
2023/04/16 02:37:01;;;;;;;4.82;2.58;;;5.20;99.90;;;;;;2072240;28;20197;-68
2023/04/16 02:38:22;;;;;;;4.30;2.70;;;5.20;99.90;;;;;;2077726;28;20246;-69
2023/04/16 02:39:43;;;;;;;5.05;3.20;;;5.20;99.90;;;;;;2079315;28;20189;-66
2023/04/16 02:41:06;;;;;;;4.40;2.67;;;5.30;99.90;;;;;;2078005;28;20223;-65
2023/04/16 02:42:30;;;;;;;4.25;2.65;;;5.80;99.90;;;;;;2069636;28;20193;-67
2023/04/16 02:43:51;;;;;;;4.40;2.80;;;5.30;99.90;;;;;;2078134;28;20204;-66
2023/04/16 02:45:12;;;;;;;5.72;3.50;;;5.30;99.90;;;;;;2080113;28;20655;-66
2023/04/16 02:46:35;;;;;;;4.85;2.80;;;5.30;99.90;;;;;;2078251;28;20185;-66
2023/04/16 02:47:56;;;;;;;4.57;2.92;;;5.30;99.90;;;;;;2076149;28;20231;-66
2023/04/16 02:49:17;;;;;;;6.07;3.53;;;5.40;99.90;;;;;;2077396;28;20741;-66
2023/04/16 02:50:38;;;;;;;7.45;2.78;;;5.40;99.90;;;;;;2078931;28;20715;-66
2023/04/16 02:51:59;;;;;;;8.90;8.05;;;5.50;99.90;;;;;;2081111;28;20338;-66
2023/04/16 02:53:22;;;;;;;5.30;3.20;;;5.40;99.90;;;;;;2075096;28;20730;-66
2023/04/16 02:54:43;;;;;;;6.88;3.60;;;5.40;99.90;;;;;;2078000;28;20694;-67
2023/04/16 02:56:04;;;;;;;7.15;3.83;;;5.30;99.90;;;;;;2077775;28;20694;-66
2023/04/16 02:57:26;;;;;;;6.47;3.80;;;5.40;99.90;;;;;;2069871;28;20200;-67
2023/04/16 02:58:47;;;;;;;5.43;3.13;;;5.30;99.90;;;;;;2071536;28;20224;-68
2023/04/16 03:00:09;;;;;;;7.45;4.47;;;5.40;99.90;;;;;;2069526;28;20336;-66
2023/04/16 03:01:31;;;;;;;8.32;4.38;;;5.40;99.90;;;;;;2077510;28;20557;-65
2023/04/16 03:02:52;;;;;;;9.35;5.32;;;5.30;99.90;;;;;;2077941;28;20574;-66
2023/04/16 03:04:13;;;;;;;7.75;4.50;;;5.30;99.90;;;;;;2077709;28;20588;-67
2023/04/16 03:05:36;;;;;;;8.63;4.05;;;5.30;99.90;;;;;;2080035;28;20726;-66
2023/04/16 03:06:57;;;;;;;8.63;4.40;;;5.20;99.90;;;;;;2075284;28;20283;-67
2023/04/16 03:08:18;;;;;;;7.72;4.20;;;5.20;99.90;;;;;;2080530;28;20213;-66
2023/04/16 03:09:39;;;;;;;9.02;5.50;;;5.10;99.90;;;;;;2080178;28;20275;-66
2023/04/16 03:11:00;;;;;;;10.02;5.45;;;5.10;99.90;;;;;;2089231;28;20192;-66
2023/04/16 03:12:21;;;;;;;10.00;5.57;;;5.00;99.90;;;;;;2081276;28;20196;-65
2023/04/16 03:13:43;;;;;;;8.10;4.80;;;5.00;99.90;;;;;;2075964;28;20295;-67
2023/04/16 03:15:05;;;;;;;11.00;5.80;;;5.00;99.90;;;;;;2078184;28;20185;-67
2023/04/16 03:16:26;;;;;;;8.07;5.15;;;5.00;99.90;;;;;;2078376;28;20189;-67
2023/04/16 03:17:47;;;;;;;10.30;5.28;;;5.00;99.90;;;;;;2089766;28;20200;-67
2023/04/16 03:19:10;;;;;;;10.02;5.18;;;5.00;99.90;;;;;;2083891;28;20222;-67
2023/04/16 03:20:31;;;;;;;8.88;4.75;;;5.00;99.90;;;;;;2082109;28;20192;-65
2023/04/16 03:21:52;;;;;;;10.68;5.45;;;5.10;99.90;;;;;;2084147;28;20185;-66
2023/04/16 03:23:14;;;;;;;9.90;5.05;;;5.10;99.90;;;;;;2081553;28;20189;-67
2023/04/16 03:24:37;;;;;;;10.07;5.55;;;5.20;99.90;;;;;;2082786;28;20263;-66
2023/04/16 03:25:58;;;;;;;11.02;5.82;;;5.20;99.90;;;;;;2081702;28;20246;-68
2023/04/16 03:27:19;;;;;;;10.77;5.50;;;5.30;99.90;;;;;;2081940;28;20203;-67
2023/04/16 03:28:40;;;;;;;12.43;6.55;;;5.40;99.90;;;;;;2078513;28;20215;-67
2023/04/16 03:30:02;;;;;;;12.50;6.53;;;5.30;99.90;;;;;;2080637;28;20206;-66
2023/04/16 03:31:24;;;;;;;12.13;6.30;;;5.30;99.90;;;;;;2081015;28;20619;-68
2023/04/16 03:32:45;;;;;;;13.27;6.28;;;6.80;99.90;;;;;;2081923;28;20188;-68
2023/04/16 03:34:06;;;;;;;16.90;7.35;;;5.30;99.90;;;;;;2081441;28;20279;-67
2023/04/16 03:35:27;;;;;;;15.73;7.22;;;5.30;99.90;;;;;;2071925;28;20189;-66
2023/04/16 03:36:48;;;;;;;16.05;6.97;;;5.20;99.90;;;;;;2075872;28;20663;-68
2023/04/16 03:38:09;;;;;;;19.17;8.48;;;5.20;99.90;;;;;;2074284;28;20228;-66
2023/04/16 03:39:32;;;;;;;20.33;8.13;;;5.20;99.90;;;;;;2077623;28;20220;-66
2023/04/16 03:40:53;;;;;;;20.98;8.88;;;5.20;99.90;;;;;;2072374;28;20264;-69
2023/04/16 03:42:14;;;;;;;22.40;8.65;;;5.10;99.90;;;;;;2078278;28;20276;-66
2023/04/16 03:43:36;;;;;;;23.52;8.93;;;5.10;99.90;;;;;;2075328;28;20201;-66
2023/04/16 03:44:57;;;;;;;20.45;8.57;;;5.10;99.90;;;;;;2080941;28;20279;-66
2023/04/16 03:46:18;;;;;;;21.05;9.05;;;5.10;99.90;;;;;;2081937;28;20280;-66
2023/04/16 03:47:39;;;;;;;21.65;9.23;;;5.20;99.90;;;;;;2080521;28;20631;-66
2023/04/16 03:49:00;;;;;;;55.40;13.93;;;5.20;99.90;;;;;;2083009;28;21098;-66
2023/04/16 03:50:21;;;;;;;33.17;10.07;;;5.20;99.90;;;;;;2080926;28;20193;-67
2023/04/16 03:51:42;;;;;;;38.22;11.80;;;5.10;99.90;;;;;;2077274;28;20630;-66
2023/04/16 03:53:03;;;;;;;56.42;13.65;;;5.10;99.90;;;;;;2072763;28;20656;-66
2023/04/16 03:54:24;;;;;;;28.35;10.10;;;5.20;99.90;;;;;;2070773;28;20229;-66
2023/04/16 03:55:52;;;;;;;95.72;17.77;;;5.20;99.90;;;;;;2078880;28;20247;-66
2023/04/16 03:57:13;;;;;;;248.27;24.85;;;5.20;99.90;;;;;;2075374;28;20198;-66
2023/04/16 03:58:34;;;;;;;93.80;18.05;;;5.20;99.90;;;;;;2080760;28;20322;-66
2023/04/16 03:59:55;;;;;;;78.70;14.98;;;5.20;99.90;;;;;;2080990;28;20694;-66
2023/04/16 04:01:16;;;;;;;88.88;15.55;;;5.20;99.90;;;;;;2073458;28;20244;-70
2023/04/16 04:02:37;;;;;;;319.45;31.15;;;5.20;99.90;;;;;;2079048;28;20208;-66
2023/04/16 04:03:59;;;;;;;140.45;21.30;;;5.10;99.90;;;;;;2078854;28;20669;-66
2023/04/16 04:05:20;;;;;;;59.55;12.07;;;5.10;99.90;;;;;;2081101;28;20641;-66
2023/04/16 04:06:45;;;;;;;48.10;10.80;;;5.10;99.90;;;;;;2070318;28;20229;-67
2023/04/16 04:08:07;;;;;;;56.15;12.55;;;5.10;99.90;;;;;;2079795;28;20216;-66
2023/04/16 04:09:29;;;;;;;122.30;18.00;;;5.10;99.90;;;;;;2065231;28;20227;-66
2023/04/16 04:10:50;;;;;;;70.53;13.35;;;5.10;99.90;;;;;;2075923;28;20227;-66
2023/04/16 04:12:11;;;;;;;32.00;10.70;;;5.20;99.90;;;;;;2081423;28;20597;-65
2023/04/16 04:13:32;;;;;;;350.52;34.42;;;5.20;99.90;;;;;;2072689;28;20193;-66
2023/04/16 04:14:53;;;;;;;151.48;20.02;;;5.20;99.90;;;;;;2078304;28;20242;-65
2023/04/16 04:16:14;;;;;;;172.73;25.45;;;5.10;99.90;;;;;;2080211;28;20224;-66
2023/04/16 04:17:35;;;;;;;176.25;25.10;;;5.10;99.90;;;;;;2081411;28;20193;-64
2023/04/16 04:18:59;;;;;;;170.70;18.95;;;5.10;99.90;;;;;;2080423;28;20195;-66
2023/04/16 04:20:20;;;;;;;95.57;18.83;;;5.00;99.90;;;;;;2080352;28;20292;-66
2023/04/16 04:21:41;;;;;;;142.88;25.55;;;4.90;99.90;;;;;;2081014;28;20802;-66
2023/04/16 04:23:02;;;;;;;116.55;22.92;;;4.90;99.90;;;;;;2081736;28;20294;-66
2023/04/16 04:24:23;;;;;;;72.35;16.67;;;4.80;99.90;;;;;;2079415;28;20185;-66
2023/04/16 04:25:44;;;;;;;81.35;18.80;;;4.80;99.90;;;;;;2082291;28;20195;-65
2023/04/16 04:27:06;;;;;;;61.72;15.68;;;4.90;99.90;;;;;;2078353;28;20240;-66
2023/04/16 04:28:27;;;;;;;111.97;24.02;;;4.90;99.90;;;;;;2075199;28;20208;-66
2023/04/16 04:29:48;;;;;;;82.05;17.67;;;4.90;99.90;;;;;;2076968;28;20198;-66
2023/04/16 04:31:09;;;;;;;111.72;18.08;;;4.90;99.90;;;;;;2070508;28;20186;-66
2023/04/16 04:32:30;;;;;;;77.03;15.88;;;4.90;99.90;;;;;;2068768;28;20249;-66
2023/04/16 04:33:51;;;;;;;68.75;15.45;;;4.90;99.90;;;;;;2075089;28;20227;-66
2023/04/16 04:35:12;;;;;;;69.80;17.23;;;4.90;99.90;;;;;;2077148;28;20193;-67
2023/04/16 04:36:33;;;;;;;86.22;17.38;;;5.00;99.90;;;;;;2080686;28;20283;-66
2023/04/16 04:37:56;;;;;;;89.38;16.35;;;5.00;99.90;;;;;;2079643;28;20267;-67
2023/04/16 04:39:19;;;;;;;112.45;17.92;;;5.10;99.90;;;;;;2078380;28;20238;-67
2023/04/16 04:40:40;;;;;;;43.75;13.88;;;5.10;99.90;;;;;;2082504;28;20200;-66
2023/04/16 04:42:02;;;;;;;89.40;15.40;;;5.10;99.90;;;;;;2079011;28;20224;-66
2023/04/16 04:43:23;;;;;;;258.30;26.35;;;5.10;99.90;;;;;;2069340;28;20264;-66
2023/04/16 04:44:45;;;;;;;170.80;21.55;;;5.00;99.90;;;;;;2067103;28;20280;-66
2023/04/16 04:46:06;;;;;;;84.75;17.15;;;5.00;99.90;;;;;;2068738;28;20240;-66
2023/04/16 04:47:27;;;;;;;41.00;13.02;;;5.00;99.90;;;;;;2070212;28;20190;-67
2023/04/16 04:48:50;;;;;;;29.92;11.05;;;5.00;99.90;;;;;;2078323;28;20208;-66
2023/04/16 04:50:11;;;;;;;24.30;10.15;;;5.00;99.90;;;;;;2080072;28;20282;-67
2023/04/16 04:51:32;;;;;;;30.88;11.55;;;5.00;99.90;;;;;;2072890;28;20838;-66
2023/04/16 04:52:53;;;;;;;28.77;9.90;;;5.00;99.90;;;;;;2076648;28;20189;-66
2023/04/16 04:54:14;;;;;;;15.65;12.68;;;5.00;99.90;;;;;;2081947;28;20690;-65
2023/04/16 04:55:37;;;;;;;13.93;7.25;;;5.00;99.90;;;;;;2077215;28;20346;-65
2023/04/16 04:56:58;;;;;;;15.40;7.72;;;4.90;99.90;;;;;;2077650;28;20275;-67
2023/04/16 04:58:19;;;;;;;14.85;6.38;;;4.90;99.90;;;;;;2061518;28;20206;-67
2023/04/16 04:59:40;;;;;;;16.27;6.90;;;4.90;99.90;;;;;;2074964;28;20204;-66
2023/04/16 05:01:01;;;;;;;13.32;6.68;;;5.00;99.90;;;;;;2080796;28;20288;-66
2023/04/16 05:02:22;;;;;;;10.02;6.18;;;5.10;99.90;;;;;;2080416;28;20681;-67
2023/04/16 05:03:43;;;;;;;11.15;6.22;;;5.10;99.90;;;;;;2073068;28;20228;-66
2023/04/16 05:05:04;;;;;;;17.92;16.05;;;5.10;99.90;;;;;;2070177;28;20193;-66
2023/04/16 05:06:26;;;;;;;8.63;4.72;;;5.10;99.90;;;;;;2078015;28;20209;-66
2023/04/16 05:07:48;;;;;;;8.90;5.20;;;5.10;99.90;;;;;;2078765;28;20197;-66
2023/04/16 05:09:10;;;;;;;8.60;5.43;;;5.10;99.90;;;;;;2081013;28;20822;-66
2023/04/16 05:10:31;;;;;;;8.68;4.15;;;5.10;99.90;;;;;;2072476;28;20690;-66
2023/04/16 05:11:52;;;;;;;9.93;4.65;;;5.20;99.90;;;;;;2077192;28;20185;-67
2023/04/16 05:13:13;;;;;;;9.27;4.82;;;5.20;99.90;;;;;;2077150;28;20196;-67
2023/04/16 05:14:35;;;;;;;9.02;4.88;;;5.20;99.90;;;;;;2070001;28;20194;-66
2023/04/16 05:15:56;;;;;;;9.65;5.28;;;5.30;99.90;;;;;;2074394;28;20189;-66
2023/04/16 05:17:17;;;;;;;9.80;5.32;;;5.30;99.90;;;;;;2064374;28;20193;-64
2023/04/16 05:18:38;;;;;;;11.15;5.63;;;5.30;99.90;;;;;;2065288;28;20193;-66
2023/04/16 05:19:59;;;;;;;10.57;5.05;;;5.30;99.90;;;;;;2078292;28;20200;-65
2023/04/16 05:21:21;;;;;;;12.52;5.70;;;5.20;99.90;;;;;;2075085;28;20750;-66
2023/04/16 05:22:42;;;;;;;10.70;5.05;;;5.20;99.90;;;;;;2079021;28;20276;-66
2023/04/16 05:24:03;;;;;;;7.72;4.43;;;5.30;99.90;;;;;;2079695;28;20197;-66
2023/04/16 05:25:24;;;;;;;8.02;4.70;;;5.40;99.90;;;;;;2078342;28;20623;-66
2023/04/16 05:26:45;;;;;;;8.60;4.82;;;5.30;99.90;;;;;;2080375;28;20664;-66
2023/04/16 05:28:06;;;;;;;9.23;4.97;;;5.30;99.90;;;;;;2074093;28;20285;-66
2023/04/16 05:29:27;;;;;;;8.40;4.43;;;5.40;99.90;;;;;;2080007;28;20727;-66
2023/04/16 05:30:48;;;;;;;6.93;3.53;;;5.40;99.90;;;;;;2081195;28;20192;-67
2023/04/16 05:32:09;;;;;;;8.68;4.22;;;5.40;99.90;;;;;;2073240;28;20249;-66
2023/04/16 05:33:31;;;;;;;7.68;4.25;;;5.50;99.90;;;;;;2070111;28;20198;-66
2023/04/16 05:34:52;;;;;;;6.38;3.63;;;5.60;99.90;;;;;;2070947;28;20304;-67
2023/04/16 05:36:13;;;;;;;6.50;3.40;;;5.60;99.90;;;;;;2077786;28;20287;-67
2023/04/16 05:37:34;;;;;;;8.38;4.65;;;5.60;99.90;;;;;;2080534;28;20703;-66
2023/04/16 05:38:55;;;;;;;5.78;3.40;;;5.70;99.90;;;;;;2074710;28;20685;-67
2023/04/16 05:40:16;;;;;;;8.25;4.00;;;5.60;99.90;;;;;;2070742;28;20660;-67
2023/04/16 05:41:37;;;;;;;6.60;3.40;;;5.50;99.90;;;;;;2068492;28;20191;-67
2023/04/16 05:42:58;;;;;;;5.15;2.97;;;5.50;99.90;;;;;;2069386;28;20610;-67
2023/04/16 05:44:19;;;;;;;5.00;2.63;;;5.50;99.90;;;;;;2077103;28;20192;-67
2023/04/16 05:45:40;;;;;;;5.25;3.05;;;5.50;99.90;;;;;;2080396;28;20276;-66
2023/04/16 05:47:01;;;;;;;9.27;3.83;;;5.60;99.90;;;;;;2080721;28;20197;-66
2023/04/16 05:48:22;;;;;;;5.50;3.47;;;5.50;99.90;;;;;;2080905;28;20252;-67
2023/04/16 05:49:43;;;;;;;7.05;3.75;;;5.60;99.90;;;;;;2080152;28;20320;-67
2023/04/16 05:51:04;;;;;;;5.32;3.47;;;5.50;99.90;;;;;;2079079;28;20730;-69
2023/04/16 05:52:25;;;;;;;7.22;3.80;;;5.50;99.90;;;;;;2079979;28;20200;-65
2023/04/16 05:53:47;;;;;;;5.57;3.08;;;5.40;99.90;;;;;;2079373;28;20250;-66
2023/04/16 05:55:08;;;;;;;5.70;3.10;;;5.40;99.90;;;;;;2080312;28;20196;-66
2023/04/16 05:56:29;;;;;;;5.80;3.30;;;5.40;99.90;;;;;;2079408;28;20185;-67
2023/04/16 05:57:50;;;;;;;7.78;3.78;;;5.40;99.90;;;;;;2071316;28;20202;-66
2023/04/16 05:59:11;;;;;;;6.88;3.88;;;5.30;99.90;;;;;;2075004;28;20217;-67
2023/04/16 06:00:32;;;;;;;8.65;4.45;;;5.30;99.90;;;;;;2079431;28;20283;-67
2023/04/16 06:01:53;;;;;;;6.30;4.43;;;5.40;99.90;;;;;;2079333;28;20192;-66
2023/04/16 06:03:14;;;;;;;6.18;3.55;;;5.40;99.90;;;;;;2071827;28;20684;-67
2023/04/16 06:04:36;;;;;;;7.47;4.20;;;5.50;99.90;;;;;;2078029;28;20684;-66
2023/04/16 06:05:57;;;;;;;7.28;4.00;;;5.60;99.90;;;;;;2079848;28;20629;-67
2023/04/16 06:07:18;;;;;;;7.90;4.55;;;5.60;99.90;;;;;;2079761;28;20196;-67
2023/04/16 06:08:39;;;;;;;7.68;4.13;;;5.70;99.90;;;;;;2077259;28;20213;-67
2023/04/16 06:10:00;;;;;;;7.75;4.35;;;5.80;99.90;;;;;;2079078;28;20223;-67
2023/04/16 06:11:21;;;;;;;11.35;5.03;;;5.70;99.90;;;;;;2077112;28;20188;-67
2023/04/16 06:12:42;;;;;;;9.32;4.40;;;5.70;99.90;;;;;;2080638;28;20675;-67
2023/04/16 06:14:03;;;;;;;9.20;5.10;;;5.60;99.90;;;;;;2080769;28;20185;-67
2023/04/16 06:15:24;;;;;;;11.93;5.18;;;5.70;99.90;;;;;;2080235;28;20197;-67
2023/04/16 06:16:46;;;;;;;11.38;5.22;;;5.60;99.90;;;;;;2079372;28;20196;-66
2023/04/16 06:18:07;;;;;;;8.90;4.75;;;5.60;99.90;;;;;;2078446;28;20801;-67
2023/04/16 06:19:28;;;;;;;11.00;5.70;;;5.40;99.90;;;;;;2078414;28;20250;-66
2023/04/16 06:20:49;;;;;;;10.75;5.05;;;5.50;99.90;;;;;;2076046;28;20318;-66
2023/04/16 06:22:10;;;;;;;9.55;4.95;;;5.40;99.90;;;;;;2076545;28;20753;-66
2023/04/16 06:23:31;;;;;;;9.80;5.03;;;5.40;99.90;;;;;;2070754;28;20284;-66
2023/04/16 06:24:52;;;;;;;10.50;4.90;;;5.40;99.90;;;;;;2066683;28;20197;-66
2023/04/16 06:26:13;;;;;;;8.35;4.55;;;5.40;99.90;;;;;;2076960;28;20189;-67
2023/04/16 06:27:34;;;;;;;10.55;5.53;;;5.50;99.90;;;;;;2076249;28;20272;-67
2023/04/16 06:28:55;;;;;;;7.93;4.03;;;5.60;99.90;;;;;;2077356;28;20205;-66
2023/04/16 06:30:18;;;;;;;10.20;4.70;;;5.60;99.90;;;;;;2078946;28;20189;-66
2023/04/16 06:31:40;;;;;;;9.65;5.93;;;5.60;99.90;;;;;;2080328;28;20193;-66
2023/04/16 06:33:01;;;;;;;15.32;5.38;;;5.60;99.90;;;;;;2071721;28;20284;-66
2023/04/16 06:34:22;;;;;;;12.30;4.97;;;5.40;99.90;;;;;;2069267;28;20236;-66
2023/04/16 06:35:43;;;;;;;10.88;4.65;;;5.40;99.90;;;;;;2067340;28;20257;-66
2023/04/16 06:37:04;;;;;;;11.85;5.95;;;5.40;99.90;;;;;;2075919;28;20271;-66
2023/04/16 06:38:25;;;;;;;9.82;4.88;;;5.40;99.90;;;;;;2077814;28;20193;-66
2023/04/16 06:39:46;;;;;;;8.45;5.00;;;5.50;99.90;;;;;;2079207;28;20193;-67
2023/04/16 06:41:07;;;;;;;9.23;5.03;;;5.50;99.90;;;;;;2080971;28;20689;-66
2023/04/16 06:42:28;;;;;;;10.63;4.80;;;5.40;99.90;;;;;;2070560;28;20270;-67
2023/04/16 06:43:49;;;;;;;9.07;4.65;;;5.40;99.90;;;;;;2078056;28;20189;-66
2023/04/16 06:45:11;;;;;;;9.52;4.72;;;5.50;99.90;;;;;;2071451;28;20233;-67
2023/04/16 06:46:32;;;;;;;9.02;5.15;;;5.40;99.90;;;;;;2077252;28;20271;-66
2023/04/16 06:47:53;;;;;;;11.85;4.85;;;5.40;99.90;;;;;;2080872;28;20628;-66
2023/04/16 06:49:14;;;;;;;10.00;4.85;;;5.40;99.90;;;;;;2078719;28;20205;-67
2023/04/16 06:50:36;;;;;;;8.43;4.32;;;5.40;99.90;;;;;;2070371;28;20232;-66
2023/04/16 06:51:57;;;;;;;7.75;4.68;;;5.50;99.90;;;;;;2077214;28;20186;-67
2023/04/16 06:53:18;;;;;;;10.57;4.78;;;5.50;99.90;;;;;;2076395;28;20188;-67
2023/04/16 06:54:39;;;;;;;9.20;5.13;;;5.60;99.90;;;;;;2078747;28;20213;-66
2023/04/16 06:56:00;;;;;;;7.28;4.13;;;5.60;99.90;;;;;;2076321;28;20302;-67
2023/04/16 06:57:21;;;;;;;7.75;4.38;;;5.60;99.90;;;;;;2071179;28;20200;-67
2023/04/16 06:58:42;;;;;;;8.90;4.30;;;5.70;99.90;;;;;;2077296;28;20199;-67
2023/04/16 07:00:06;;;;;;;9.23;5.38;;;5.80;99.90;;;;;;2070327;28;20268;-67
2023/04/16 07:01:29;;;;;;;8.23;4.78;;;5.80;99.90;;;;;;2071468;28;20727;-66
2023/04/16 07:02:52;;;;;;;7.25;4.15;;;5.90;99.90;;;;;;2078170;28;20197;-68
2023/04/16 07:04:13;;;;;;;6.47;4.45;;;5.90;99.90;;;;;;2079571;28;20191;-67
2023/04/16 07:05:34;;;;;;;7.03;4.28;;;6.00;99.90;;;;;;2071073;28;20409;-67